Time;durP1;ratioP1;P1;durP2;ratioP2;P2;SDS_P1;SDS_P2;PMS_P1;PMS_P2;Temp;Humidity;BMP_temperature;BMP_pressure;BME280_temperature;BME280_humidity;BME280_pressure;Samples;Min_cycle;Max_cycle;Signal;HPM_P1;HPM_P2
2021/07/27 00:00:01;;;;;;;2.63;2.43;;;31.30;59.60;;;;;;5019501;28;20563;-27
2021/07/27 00:02:31;;;;;;;2.97;2.77;;;31.40;61.50;;;;;;5022709;28;20452;-27
2021/07/27 00:05:04;;;;;;;2.53;2.33;;;31.50;59.80;;;;;;5017996;28;20511;-27
2021/07/27 00:07:38;;;;;;;2.40;2.20;;;31.30;58.90;;;;;;5020093;28;20448;-27
2021/07/27 00:10:10;;;;;;;2.50;2.30;;;31.40;60.00;;;;;;5016780;28;20477;-27
2021/07/27 00:12:41;;;;;;;2.47;2.30;;;31.50;59.90;;;;;;5003536;28;20501;-27
2021/07/27 00:15:13;;;;;;;2.10;2.00;;;31.50;60.40;;;;;;5002957;28;20458;-28
2021/07/27 00:17:44;;;;;;;2.63;2.40;;;31.50;59.70;;;;;;5003360;28;20464;-28
2021/07/27 00:20:17;;;;;;;2.40;2.13;;;31.50;60.30;;;;;;5019869;28;20450;-28
2021/07/27 00:22:48;;;;;;;2.63;2.30;;;31.40;60.50;;;;;;5016408;28;20846;-28
2021/07/27 00:25:20;;;;;;;2.50;2.13;;;31.30;60.00;;;;;;5003502;28;20454;-28
2021/07/27 00:27:51;;;;;;;2.50;2.30;;;31.20;59.80;;;;;;5003431;28;20452;-28
2021/07/27 00:30:22;;;;;;;2.20;2.00;;;31.00;60.30;;;;;;5005239;28;20454;-28
2021/07/27 00:32:52;;;;;;;3.20;2.90;;;30.80;60.10;;;;;;5019681;28;20491;-27
2021/07/27 00:35:28;;;;;;;2.40;2.20;;;30.80;61.40;;;;;;5022401;28;20995;-28
2021/07/27 00:38:08;;;;;;;4.00;1.90;;;30.80;62.70;;;;;;5022137;28;20460;-29
2021/07/27 00:40:39;;;;;;;3.77;3.20;;;30.60;62.20;;;;;;5018963;28;20443;-27
2021/07/27 00:43:29;;;;;;;2.40;2.20;;;30.40;60.70;;;;;;5022008;28;20479;-29
2021/07/27 00:46:01;;;;;;;3.77;2.40;;;30.50;61.90;;;;;;5021939;28;20462;-28
2021/07/27 00:48:32;;;;;;;2.60;2.40;;;30.30;63.30;;;;;;5022468;28;20451;-27
2021/07/27 00:51:06;;;;;;;2.40;2.30;;;30.20;63.50;;;;;;5025043;28;20522;-28
2021/07/27 00:53:37;;;;;;;3.70;2.67;;;30.10;64.00;;;;;;5019037;28;20485;-28
2021/07/27 00:56:09;;;;;;;2.77;2.57;;;30.10;64.50;;;;;;5024122;28;20467;-27
2021/07/27 00:58:40;;;;;;;3.23;2.50;;;30.00;64.80;;;;;;5026101;28;20816;-28
2021/07/27 01:01:11;;;;;;;3.37;2.53;;;30.00;65.00;;;;;;5032684;28;20462;-28
2021/07/27 01:03:42;;;;;;;2.70;2.50;;;30.00;66.20;;;;;;5026552;28;20894;-28
2021/07/27 01:06:15;;;;;;;2.20;2.00;;;30.00;66.30;;;;;;5021085;28;20479;-27
2021/07/27 01:08:47;;;;;;;2.20;2.10;;;30.00;65.70;;;;;;5023672;28;20455;-27
2021/07/27 01:11:24;;;;;;;4.43;2.20;;;29.90;66.00;;;;;;5024827;28;20492;-28
2021/07/27 01:13:55;;;;;;;2.77;2.30;;;29.90;66.50;;;;;;5022016;28;20452;-28
2021/07/27 01:16:32;;;;;;;2.73;2.20;;;29.80;66.90;;;;;;5007757;28;20532;-27
2021/07/27 01:19:14;;;;;;;3.77;2.40;;;29.70;68.00;;;;;;5022174;28;20464;-28
2021/07/27 01:39:20;;;;;;;2.90;2.70;;;29.50;69.40;;;;;;4944435;29;20478;-27
2021/07/27 01:42:13;;;;;;;3.00;2.20;;;29.50;69.30;;;;;;4944574;29;20460;-27
2021/07/27 01:44:45;;;;;;;2.77;2.00;;;29.50;69.40;;;;;;4929471;29;20588;-27
2021/07/27 01:47:18;;;;;;;2.50;2.27;;;29.50;70.30;;;;;;4949627;29;20538;-28
2021/07/27 01:49:50;;;;;;;2.87;2.57;;;29.40;69.90;;;;;;4948508;29;20464;-28
2021/07/27 01:52:24;;;;;;;2.20;2.00;;;29.40;69.50;;;;;;4944206;29;20569;-27
2021/07/27 01:54:56;;;;;;;4.30;2.60;;;29.30;69.70;;;;;;4952404;29;20491;-27
2021/07/27 01:57:31;;;;;;;2.47;2.27;;;29.20;69.80;;;;;;4953065;29;20461;-27
2021/07/27 02:00:10;;;;;;;2.27;2.07;;;29.20;69.20;;;;;;4944283;29;21041;-28
2021/07/27 02:02:41;;;;;;;2.70;2.50;;;29.00;70.10;;;;;;4944949;29;20474;-28
2021/07/27 02:05:13;;;;;;;2.80;2.50;;;29.00;70.00;;;;;;4944228;28;20456;-28
2021/07/27 02:07:50;;;;;;;3.70;2.90;;;28.90;70.20;;;;;;5014030;28;20524;-28
2021/07/27 02:10:22;;;;;;;4.50;2.90;;;28.80;70.40;;;;;;5010296;28;20459;-28
2021/07/27 02:13:00;;;;;;;3.60;3.30;;;28.80;70.80;;;;;;5018739;28;20544;-27
2021/07/27 02:15:41;;;;;;;3.73;3.43;;;28.70;71.50;;;;;;5008194;28;20552;-27
2021/07/27 02:18:12;;;;;;;3.60;2.73;;;28.60;71.70;;;;;;5023505;28;20523;-27
2021/07/27 02:20:43;;;;;;;3.03;2.73;;;28.60;71.90;;;;;;5018617;28;20455;-27
2021/07/27 02:23:14;;;;;;;3.37;3.07;;;28.60;72.40;;;;;;5013714;28;20447;-28
2021/07/27 02:25:46;;;;;;;2.40;2.20;;;28.60;72.20;;;;;;5005971;28;20462;-28
2021/07/27 02:28:18;;;;;;;3.27;2.97;;;28.60;72.10;;;;;;5008744;28;20458;-28
2021/07/27 02:30:53;;;;;;;3.20;2.90;;;28.50;72.70;;;;;;5012159;28;20447;-28
2021/07/27 02:33:24;;;;;;;5.17;3.10;;;28.40;72.90;;;;;;5013323;28;20516;-28
2021/07/27 02:35:56;;;;;;;4.93;3.80;;;28.40;73.00;;;;;;5018303;28;20462;-27
2021/07/27 02:38:27;;;;;;;5.10;3.10;;;28.40;73.20;;;;;;5021015;28;20454;-27
2021/07/27 02:40:58;;;;;;;4.00;3.53;;;28.30;73.80;;;;;;5022235;28;20477;-27
2021/07/27 02:43:32;;;;;;;5.97;3.57;;;28.20;73.80;;;;;;5016745;28;20647;-27
2021/07/27 02:46:03;;;;;;;3.40;3.10;;;28.20;73.70;;;;;;5008109;28;20465;-27
2021/07/27 02:48:35;;;;;;;4.73;3.40;;;28.10;74.00;;;;;;5013840;28;20924;-28
2021/07/27 02:51:07;;;;;;;3.47;3.17;;;28.00;73.90;;;;;;5018982;28;20486;-27
2021/07/27 02:53:38;;;;;;;3.33;3.03;;;27.90;74.80;;;;;;5012045;28;20495;-28
2021/07/27 02:56:09;;;;;;;5.70;3.13;;;27.90;73.20;;;;;;5012246;28;20518;-27
2021/07/27 02:58:42;;;;;;;3.33;3.03;;;27.70;73.80;;;;;;5015975;28;20515;-27
2021/07/27 03:01:13;;;;;;;4.20;3.80;;;27.70;73.90;;;;;;5015446;28;20552;-28
2021/07/27 03:03:44;;;;;;;4.40;4.00;;;27.60;73.80;;;;;;5009279;28;20453;-28
2021/07/27 03:06:16;;;;;;;4.20;3.70;;;27.50;74.50;;;;;;5019406;28;20549;-27
2021/07/27 03:08:51;;;;;;;5.43;3.57;;;27.50;74.80;;;;;;5022692;28;20450;-27
2021/07/27 03:11:23;;;;;;;2.83;2.50;;;27.30;75.70;;;;;;5016371;28;20481;-27
2021/07/27 03:13:56;;;;;;;3.60;2.70;;;27.20;76.30;;;;;;5003580;28;20556;-28
2021/07/27 03:16:28;;;;;;;3.60;2.60;;;27.20;74.40;;;;;;5003987;28;20456;-27
2021/07/27 03:18:59;;;;;;;3.43;2.60;;;27.10;74.50;;;;;;5011011;28;20962;-28
2021/07/27 03:21:29;;;;;;;3.20;2.90;;;26.90;74.20;;;;;;5015081;28;20448;-27
2021/07/27 03:24:00;;;;;;;3.53;2.50;;;26.80;73.80;;;;;;5003368;28;20491;-28
2021/07/27 03:26:31;;;;;;;4.50;3.33;;;26.70;74.60;;;;;;5018293;28;20490;-28
2021/07/27 03:29:04;;;;;;;3.10;2.70;;;26.60;74.50;;;;;;5016810;28;20451;-28
2021/07/27 03:31:35;;;;;;;2.50;2.30;;;26.50;74.70;;;;;;5014172;28;20446;-28
2021/07/27 03:34:06;;;;;;;2.60;2.40;;;26.50;75.30;;;;;;5031604;28;20477;-28
2021/07/27 03:36:37;;;;;;;2.83;2.30;;;26.30;75.30;;;;;;5013802;28;20989;-27
2021/07/27 03:39:09;;;;;;;2.47;2.27;;;26.20;76.20;;;;;;5015515;28;20526;-28
2021/07/27 03:41:40;;;;;;;2.70;2.50;;;26.10;76.80;;;;;;5014495;28;20463;-26
2021/07/27 03:44:12;;;;;;;2.50;2.30;;;26.00;77.10;;;;;;5013254;28;20510;-27
2021/07/27 03:46:54;;;;;;;3.03;2.10;;;26.00;76.90;;;;;;5014537;28;20458;-27
2021/07/27 03:49:25;;;;;;;2.50;2.27;;;25.90;77.00;;;;;;5012399;28;20469;-27
2021/07/27 03:51:56;;;;;;;2.27;2.07;;;25.80;77.50;;;;;;5014535;28;20451;-27
2021/07/27 03:54:28;;;;;;;3.00;2.70;;;25.60;77.90;;;;;;5015578;28;20962;-27
2021/07/27 03:56:59;;;;;;;2.27;2.07;;;25.60;78.70;;;;;;5014093;28;20447;-27
2021/07/27 03:59:31;;;;;;;2.43;2.23;;;25.50;78.70;;;;;;5011952;28;20797;-27
2021/07/27 04:02:03;;;;;;;2.30;2.10;;;25.30;78.90;;;;;;5017068;28;20565;-27
2021/07/27 04:04:35;;;;;;;2.50;2.30;;;25.30;79.30;;;;;;5021917;28;20467;-27
2021/07/27 04:07:06;;;;;;;2.20;1.73;;;25.20;79.70;;;;;;5016953;28;20481;-26
2021/07/27 04:09:38;;;;;;;2.70;1.80;;;25.20;79.40;;;;;;5013254;28;20451;-26
2021/07/27 04:12:09;;;;;;;2.47;2.27;;;25.20;79.20;;;;;;5012430;28;21038;-27
2021/07/27 04:14:42;;;;;;;2.57;1.60;;;25.10;79.10;;;;;;5015295;28;20600;-26
2021/07/27 04:17:13;;;;;;;2.27;1.87;;;25.00;79.40;;;;;;5020290;28;20512;-27
2021/07/27 04:19:43;;;;;;;2.73;1.70;;;24.90;79.90;;;;;;5015566;28;20446;-28
2021/07/27 04:22:14;;;;;;;1.70;1.60;;;24.80;79.80;;;;;;5020111;28;20466;-27
2021/07/27 04:24:45;;;;;;;1.70;1.60;;;24.80;79.50;;;;;;5022776;28;20842;-31
2021/07/27 04:27:17;;;;;;;1.90;1.63;;;24.80;79.50;;;;;;5028540;28;20445;-26
2021/07/27 04:29:49;;;;;;;3.83;1.87;;;24.80;79.00;;;;;;5020237;28;20455;-26
2021/07/27 04:32:20;;;;;;;1.47;1.30;;;24.70;79.30;;;;;;5007056;28;20486;-27
2021/07/27 04:34:52;;;;;;;2.10;1.80;;;24.60;79.60;;;;;;5021956;28;20546;-26
2021/07/27 04:37:23;;;;;;;2.20;1.40;;;24.50;79.60;;;;;;5019238;28;20467;-27
2021/07/27 04:39:54;;;;;;;1.87;1.57;;;24.50;79.80;;;;;;5005992;28;20455;-27
2021/07/27 04:42:25;;;;;;;1.70;1.60;;;24.40;80.30;;;;;;5010598;28;20459;-26
2021/07/27 04:44:58;;;;;;;1.87;1.67;;;24.30;80.50;;;;;;5014626;28;20513;-27
2021/07/27 04:47:29;;;;;;;1.77;1.67;;;24.20;80.50;;;;;;5016834;28;20443;-27
2021/07/27 04:50:00;;;;;;;2.10;1.77;;;24.20;81.20;;;;;;5022121;28;20525;-27
2021/07/27 04:52:31;;;;;;;1.60;1.50;;;24.10;80.90;;;;;;5011021;28;20458;-27
2021/07/27 04:55:02;;;;;;;2.00;1.73;;;24.00;81.20;;;;;;5018214;28;20490;-26
2021/07/27 04:57:34;;;;;;;1.90;1.70;;;24.00;81.60;;;;;;5015467;28;20456;-27
2021/07/27 05:00:10;;;;;;;2.50;1.70;;;23.90;82.10;;;;;;5020213;28;20489;-27
2021/07/27 05:02:41;;;;;;;1.73;1.50;;;23.80;82.40;;;;;;5021137;28;20496;-27
2021/07/27 05:05:13;;;;;;;2.17;1.93;;;23.70;82.40;;;;;;5020043;28;22053;-27
2021/07/27 05:07:45;;;;;;;2.10;1.90;;;23.80;82.60;;;;;;5022430;28;20968;-27
2021/07/27 05:10:16;;;;;;;1.70;1.60;;;23.70;83.30;;;;;;5024390;28;20520;-27
2021/07/27 05:12:47;;;;;;;1.53;1.43;;;23.60;83.30;;;;;;5008242;28;20447;-27
2021/07/27 05:15:20;;;;;;;1.30;1.20;;;23.50;84.20;;;;;;5005510;28;20461;-27
2021/07/27 05:17:51;;;;;;;1.83;1.73;;;23.40;84.50;;;;;;5010366;28;20545;-27
2021/07/27 05:20:22;;;;;;;1.80;1.50;;;23.40;84.90;;;;;;5018720;28;20486;-27
2021/07/27 05:22:53;;;;;;;2.60;1.80;;;23.20;85.40;;;;;;5007401;28;20458;-27
2021/07/27 05:25:24;;;;;;;2.00;1.63;;;23.10;86.00;;;;;;5017541;28;20507;-26
2021/07/27 05:27:55;;;;;;;1.60;1.40;;;23.10;86.30;;;;;;5027386;28;21096;-27
2021/07/27 05:30:27;;;;;;;2.03;1.20;;;23.00;87.20;;;;;;5026735;28;20460;-27
2021/07/27 05:33:01;;;;;;;1.57;1.40;;;23.00;87.40;;;;;;5026092;28;20869;-27
2021/07/27 05:35:32;;;;;;;1.57;1.47;;;22.90;87.90;;;;;;5014774;28;20478;-27
2021/07/27 05:38:03;;;;;;;1.60;1.50;;;22.80;88.50;;;;;;5015750;28;21039;-27
2021/07/27 05:40:34;;;;;;;1.47;1.37;;;22.80;89.70;;;;;;5022082;28;20552;-27
2021/07/27 05:43:05;;;;;;;1.73;1.50;;;22.70;90.00;;;;;;5024359;28;20458;-27
2021/07/27 05:45:38;;;;;;;1.97;1.77;;;22.70;90.60;;;;;;5024587;28;20425;-27
2021/07/27 05:48:09;;;;;;;1.40;1.30;;;22.60;91.20;;;;;;5024859;28;20465;-27
2021/07/27 05:50:40;;;;;;;1.80;1.70;;;22.60;91.70;;;;;;5016168;28;20421;-27
2021/07/27 05:53:11;;;;;;;2.23;1.60;;;22.50;92.20;;;;;;5006534;28;20482;-27
2021/07/27 05:55:42;;;;;;;1.40;1.13;;;22.40;93.20;;;;;;5019642;28;20484;-27
2021/07/27 05:58:13;;;;;;;1.50;1.40;;;22.30;93.40;;;;;;5011720;28;20483;-27
2021/07/27 06:00:46;;;;;;;1.90;1.67;;;22.30;93.60;;;;;;5021519;28;20478;-26
2021/07/27 06:03:17;;;;;;;2.23;1.20;;;22.30;94.10;;;;;;5024368;28;20443;-26
2021/07/27 06:05:53;;;;;;;2.10;1.50;;;22.20;94.50;;;;;;5024365;28;20518;-26
2021/07/27 06:08:23;;;;;;;1.20;1.10;;;22.10;95.10;;;;;;5008821;28;20458;-26
2021/07/27 06:10:54;;;;;;;1.40;1.30;;;22.10;95.30;;;;;;5014655;28;20461;-26
2021/07/27 06:13:25;;;;;;;1.37;1.27;;;22.00;95.90;;;;;;5010028;28;20497;-26
2021/07/27 06:16:02;;;;;;;2.17;1.70;;;22.00;96.00;;;;;;5023071;28;20489;-27
2021/07/27 06:18:33;;;;;;;1.53;1.43;;;22.00;96.50;;;;;;5010188;28;20542;-27
2021/07/27 06:21:05;;;;;;;1.57;1.47;;;21.90;96.90;;;;;;5018799;28;20435;-26
2021/07/27 06:23:36;;;;;;;1.63;1.30;;;21.90;97.40;;;;;;5015121;28;20482;-27
2021/07/27 06:26:08;;;;;;;1.60;1.40;;;21.90;97.80;;;;;;5011805;28;20470;-26
2021/07/27 06:28:40;;;;;;;1.40;1.30;;;21.80;98.00;;;;;;5011805;28;20434;-27
2021/07/27 06:31:12;;;;;;;1.27;1.17;;;21.70;98.50;;;;;;5018408;28;20421;-27
2021/07/27 06:33:44;;;;;;;1.47;1.20;;;21.60;99.30;;;;;;5023753;28;20442;-27
2021/07/27 06:36:15;;;;;;;1.77;1.40;;;21.50;99.80;;;;;;5019833;28;20475;-27
2021/07/27 06:38:46;;;;;;;2.93;1.80;;;21.60;99.80;;;;;;5019874;28;20496;-27
2021/07/27 06:41:17;;;;;;;1.50;1.40;;;21.50;99.90;;;;;;5015581;28;20457;-27
2021/07/27 06:43:48;;;;;;;2.07;1.50;;;21.40;99.90;;;;;;5004600;28;20981;-26
2021/07/27 06:46:21;;;;;;;2.67;1.33;;;21.40;99.90;;;;;;5018991;28;20438;-27
2021/07/27 06:48:53;;;;;;;4.33;1.40;;;21.30;99.90;;;;;;5012013;28;20422;-27
2021/07/27 06:51:23;;;;;;;1.33;1.17;;;21.20;99.90;;;;;;5003831;28;20793;-27
2021/07/27 06:53:55;;;;;;;2.10;1.20;;;21.20;99.90;;;;;;5012738;28;20571;-26
2021/07/27 06:56:26;;;;;;;1.30;1.20;;;21.20;99.90;;;;;;5020782;28;20536;-27
2021/07/27 06:59:00;;;;;;;1.50;1.20;;;21.10;99.90;;;;;;5004260;28;20433;-27
2021/07/27 07:01:44;;;;;;;3.47;2.50;;;21.10;99.90;;;;;;5012166;28;20545;-27
2021/07/27 07:04:34;;;;;;;1.30;1.17;;;21.00;99.90;;;;;;5006877;28;20426;-27
2021/07/27 07:07:11;;;;;;;2.23;1.23;;;21.00;99.90;;;;;;5016123;28;20444;-27
2021/07/27 07:09:59;;;;;;;2.50;1.00;;;20.90;99.90;;;;;;5004483;28;20436;-26
2021/07/27 07:12:33;;;;;;;1.67;1.37;;;20.80;99.90;;;;;;5003747;28;20482;-27
2021/07/27 07:15:10;;;;;;;2.00;1.53;;;20.80;99.90;;;;;;5015085;28;20530;-26
2021/07/27 07:18:03;;;;;;;1.87;1.30;;;20.90;99.90;;;;;;5020881;28;20488;-27
2021/07/27 07:20:39;;;;;;;1.40;1.20;;;20.80;99.90;;;;;;5010789;28;20497;-26
2021/07/27 07:23:18;;;;;;;1.90;1.40;;;20.70;99.90;;;;;;5016175;28;20483;-27
2021/07/27 07:26:00;;;;;;;1.40;1.30;;;20.70;99.90;;;;;;5017977;28;20431;-27
2021/07/27 07:28:33;;;;;;;1.27;1.17;;;20.70;99.90;;;;;;5002786;28;20525;-27
2021/07/27 07:31:16;;;;;;;1.70;1.30;;;20.60;99.90;;;;;;5023188;28;20501;-27
2021/07/27 07:33:56;;;;;;;1.93;1.50;;;20.60;99.90;;;;;;5008831;28;20443;-27
2021/07/27 07:36:31;;;;;;;1.50;1.40;;;20.60;99.90;;;;;;5016018;28;20461;-26
2021/07/27 07:39:05;;;;;;;2.53;1.50;;;20.50;99.90;;;;;;5010856;28;20448;-27
2021/07/27 07:41:40;;;;;;;1.50;1.40;;;20.40;99.90;;;;;;5020169;28;20459;-27
2021/07/27 07:44:14;;;;;;;1.50;1.40;;;20.40;99.90;;;;;;5012900;28;20486;-27
2021/07/27 07:46:49;;;;;;;1.40;1.30;;;20.30;99.90;;;;;;5021936;28;20457;-27
2021/07/27 07:49:32;;;;;;;1.30;1.17;;;20.30;99.90;;;;;;5022927;28;20460;-27
2021/07/27 07:55:06;;;;;;;1.77;1.57;;;20.20;99.90;;;;;;5023299;28;20448;-27
2021/07/27 07:57:40;;;;;;;1.80;1.30;;;20.20;99.90;;;;;;5023573;28;20473;-27
2021/07/27 08:00:19;;;;;;;1.53;1.20;;;20.20;99.90;;;;;;5024575;28;20457;-26
2021/07/27 08:02:54;;;;;;;2.27;1.50;;;20.10;99.90;;;;;;5026607;28;20485;-26
2021/07/27 08:05:31;;;;;;;1.97;1.83;;;20.00;99.90;;;;;;5024442;28;20477;-26
2021/07/27 08:08:05;;;;;;;1.97;1.40;;;20.00;99.90;;;;;;5014898;28;20480;-26
2021/07/27 08:10:39;;;;;;;1.30;1.17;;;20.00;99.90;;;;;;5024944;28;20459;-26
2021/07/27 08:13:18;;;;;;;1.93;1.30;;;20.00;99.90;;;;;;5007716;28;20802;-26
2021/07/27 08:15:54;;;;;;;1.80;1.17;;;19.90;99.90;;;;;;5018714;28;20490;-26
2021/07/27 08:18:32;;;;;;;1.50;1.40;;;19.90;99.90;;;;;;5025435;28;20467;-26
2021/07/27 08:21:11;;;;;;;1.67;1.40;;;19.90;99.90;;;;;;5019638;28;20446;-27
2021/07/27 08:23:48;;;;;;;0.90;0.80;;;19.80;99.90;;;;;;5019554;28;20473;-26
2021/07/27 08:26:22;;;;;;;1.60;1.20;;;19.70;99.90;;;;;;5022357;28;20488;-26
2021/07/27 08:28:53;;;;;;;1.33;1.23;;;19.70;99.90;;;;;;5021964;28;20442;-26
2021/07/27 08:31:24;;;;;;;1.40;1.30;;;19.60;99.90;;;;;;5020773;28;20443;-27
2021/07/27 08:33:55;;;;;;;1.23;1.13;;;19.60;99.90;;;;;;5021443;28;20452;-25
2021/07/27 08:36:27;;;;;;;1.50;1.20;;;19.50;99.90;;;;;;5008301;28;20486;-27
2021/07/27 08:38:58;;;;;;;1.67;1.33;;;19.50;99.90;;;;;;5022804;28;20457;-26
2021/07/27 08:41:33;;;;;;;1.27;1.00;;;19.60;99.90;;;;;;5024672;28;20432;-26
2021/07/27 08:44:23;;;;;;;1.10;1.00;;;19.50;99.90;;;;;;5006722;28;20482;-26
2021/07/27 08:46:57;;;;;;;1.10;0.90;;;19.50;99.90;;;;;;5007488;28;20474;-26
2021/07/27 08:49:29;;;;;;;1.20;1.10;;;19.50;99.90;;;;;;5010344;28;20453;-26
2021/07/27 08:52:03;;;;;;;1.20;1.10;;;19.40;99.90;;;;;;5019415;28;20831;-26
2021/07/27 08:54:34;;;;;;;1.23;1.00;;;19.30;99.90;;;;;;5023380;28;20914;-26
2021/07/27 08:57:14;;;;;;;1.53;1.33;;;19.30;99.90;;;;;;5021612;28;20948;-26
2021/07/27 08:59:45;;;;;;;1.47;1.20;;;19.20;99.90;;;;;;5021716;28;20477;-26
2021/07/27 09:02:26;;;;;;;1.30;1.20;;;19.30;99.90;;;;;;5025177;28;20548;-26
2021/07/27 09:05:11;;;;;;;0.90;0.80;;;19.20;99.90;;;;;;5018257;28;20449;-27
2021/07/27 09:07:43;;;;;;;1.30;1.17;;;19.20;99.90;;;;;;5021358;28;20921;-25
2021/07/27 09:10:17;;;;;;;1.30;1.20;;;19.20;99.90;;;;;;5023815;28;20416;-25
2021/07/27 09:12:55;;;;;;;1.80;1.00;;;19.10;99.90;;;;;;5024782;28;20457;-27
2021/07/27 09:15:28;;;;;;;0.97;0.97;;;19.10;99.90;;;;;;5010700;28;20462;-26
2021/07/27 09:18:00;;;;;;;1.10;0.87;;;19.20;99.90;;;;;;5018505;28;20417;-26
2021/07/27 09:20:35;;;;;;;0.83;0.73;;;19.20;99.90;;;;;;5024374;28;20432;-25
2021/07/27 09:23:16;;;;;;;1.13;1.00;;;19.10;99.90;;;;;;5014451;28;20447;-27
2021/07/27 09:25:49;;;;;;;1.00;0.93;;;19.10;99.90;;;;;;5021066;28;20444;-26
2021/07/27 09:28:21;;;;;;;1.17;1.00;;;19.00;99.90;;;;;;5021151;28;20447;-26
2021/07/27 09:30:57;;;;;;;1.30;1.20;;;19.00;99.90;;;;;;5020587;28;20881;-25
2021/07/27 09:33:32;;;;;;;1.40;0.90;;;18.90;99.90;;;;;;5022790;28;20429;-26
2021/07/27 09:36:04;;;;;;;1.17;0.73;;;18.90;99.90;;;;;;5005741;28;20484;-26
2021/07/27 09:38:37;;;;;;;1.20;1.00;;;18.90;99.90;;;;;;5008838;28;20478;-26
2021/07/27 09:41:08;;;;;;;1.80;1.20;;;18.90;99.90;;;;;;5022079;28;20527;-27
2021/07/27 09:43:48;;;;;;;1.17;0.90;;;18.90;99.90;;;;;;5019861;28;20536;-26
2021/07/27 09:46:20;;;;;;;1.07;1.03;;;18.90;99.90;;;;;;5022143;28;20497;-26
2021/07/27 09:48:52;;;;;;;1.73;1.07;;;18.80;99.90;;;;;;5022071;28;20512;-25
2021/07/27 09:51:23;;;;;;;0.93;0.90;;;18.90;99.90;;;;;;5010337;28;20459;-27
2021/07/27 09:53:56;;;;;;;1.43;0.90;;;18.80;99.90;;;;;;5005288;28;20463;-27
2021/07/27 09:56:27;;;;;;;0.90;0.90;;;18.70;99.90;;;;;;5020689;28;20527;-27
2021/07/27 09:58:58;;;;;;;1.07;0.90;;;18.80;99.90;;;;;;5021605;28;20462;-25
2021/07/27 10:01:30;;;;;;;1.17;0.90;;;18.80;99.90;;;;;;5010347;28;20483;-26
2021/07/27 10:04:06;;;;;;;0.83;0.83;;;18.70;99.90;;;;;;5022300;28;20982;-26
2021/07/27 10:06:39;;;;;;;0.90;0.70;;;18.70;99.90;;;;;;5023029;28;20420;-25
2021/07/27 10:09:11;;;;;;;0.93;0.87;;;18.70;99.90;;;;;;5012004;28;20462;-26
2021/07/27 10:11:44;;;;;;;2.13;1.20;;;18.60;99.90;;;;;;5023634;28;20459;-25
2021/07/27 10:14:16;;;;;;;1.00;0.90;;;18.60;99.90;;;;;;5016097;28;20471;-25
2021/07/27 10:16:48;;;;;;;1.37;1.27;;;18.50;99.90;;;;;;5011920;28;20497;-25
2021/07/27 10:19:21;;;;;;;1.10;1.00;;;18.50;99.90;;;;;;5013166;28;20798;-25
2021/07/27 10:22:04;;;;;;;1.07;0.90;;;18.40;99.90;;;;;;5020935;28;20466;-25
2021/07/27 10:24:42;;;;;;;0.80;0.73;;;18.30;99.90;;;;;;5022549;28;20599;-25
2021/07/27 10:27:16;;;;;;;1.07;0.97;;;18.30;99.90;;;;;;5022735;28;20477;-26
2021/07/27 10:29:47;;;;;;;1.47;0.90;;;18.20;99.90;;;;;;5023373;28;20429;-26
2021/07/27 10:32:20;;;;;;;1.53;1.37;;;18.20;99.90;;;;;;5024291;28;20446;-25
2021/07/27 10:34:52;;;;;;;1.10;0.90;;;18.20;99.90;;;;;;5020882;28;20465;-25
2021/07/27 10:37:23;;;;;;;1.20;1.10;;;18.20;99.90;;;;;;5004058;28;20465;-25
2021/07/27 10:39:58;;;;;;;1.30;1.20;;;18.20;99.90;;;;;;5016590;28;20486;-25
2021/07/27 10:42:40;;;;;;;0.93;0.80;;;18.20;99.90;;;;;;5019692;28;20508;-25
2021/07/27 10:45:20;;;;;;;1.03;0.97;;;18.10;99.90;;;;;;5022521;28;20505;-25
2021/07/27 10:47:52;;;;;;;1.40;0.93;;;18.10;99.90;;;;;;5012429;28;20951;-26
2021/07/27 10:50:28;;;;;;;1.17;0.87;;;18.10;99.90;;;;;;5018615;28;20826;-25
2021/07/27 10:53:04;;;;;;;1.10;1.00;;;18.10;99.90;;;;;;5018653;28;20940;-25
2021/07/27 10:55:39;;;;;;;1.03;1.00;;;17.90;99.90;;;;;;5019876;28;20510;-25
2021/07/27 10:58:18;;;;;;;1.50;0.83;;;18.00;99.90;;;;;;5011424;28;20520;-26
2021/07/27 11:00:49;;;;;;;1.40;1.00;;;18.00;99.90;;;;;;5011364;28;20794;-25
2021/07/27 11:03:28;;;;;;;1.07;0.97;;;18.00;99.90;;;;;;5013916;28;20439;-26
2021/07/27 11:06:02;;;;;;;1.20;0.70;;;17.90;99.90;;;;;;5004040;28;20450;-26
2021/07/27 11:08:33;;;;;;;1.00;0.80;;;17.90;99.90;;;;;;5019116;28;20458;-26
2021/07/27 11:11:10;;;;;;;1.10;1.00;;;17.90;99.90;;;;;;5021974;28;20477;-26
2021/07/27 11:13:41;;;;;;;1.33;1.17;;;17.70;99.90;;;;;;5022547;28;20425;-26
2021/07/27 11:16:12;;;;;;;0.70;0.70;;;17.70;99.90;;;;;;5007896;28;20451;-26
2021/07/27 11:18:43;;;;;;;0.97;0.90;;;17.70;99.90;;;;;;5010983;28;20486;-26
2021/07/27 11:21:14;;;;;;;0.80;0.80;;;17.70;99.90;;;;;;5003238;28;20455;-25
2021/07/27 11:23:45;;;;;;;1.90;1.03;;;17.70;99.90;;;;;;5006624;28;20478;-25
2021/07/27 11:26:18;;;;;;;1.00;0.90;;;17.80;99.90;;;;;;5021320;28;20470;-25
2021/07/27 11:28:49;;;;;;;1.13;0.90;;;17.70;99.90;;;;;;5006450;28;20459;-26
2021/07/27 11:31:22;;;;;;;0.70;0.70;;;17.60;99.90;;;;;;5003340;28;20455;-25
2021/07/27 11:33:54;;;;;;;1.37;1.20;;;17.50;99.90;;;;;;5012956;28;20447;-26
2021/07/27 11:36:25;;;;;;;1.43;1.10;;;17.50;99.90;;;;;;5015786;28;20790;-26
2021/07/27 11:39:06;;;;;;;1.00;1.00;;;17.60;99.90;;;;;;5014396;28;20525;-26
2021/07/27 11:41:39;;;;;;;1.57;0.77;;;17.60;99.90;;;;;;5011112;28;20473;-26
2021/07/27 11:44:12;;;;;;;1.83;1.00;;;17.50;99.90;;;;;;5021988;28;20524;-26
2021/07/27 11:46:44;;;;;;;1.80;1.43;;;17.30;99.90;;;;;;5005191;28;20458;-26
2021/07/27 11:49:15;;;;;;;1.27;0.90;;;17.30;99.90;;;;;;5018333;28;20450;-26
2021/07/27 11:51:46;;;;;;;1.70;1.33;;;17.30;99.90;;;;;;5022187;28;20453;-25
2021/07/27 11:54:26;;;;;;;1.90;1.70;;;17.30;99.90;;;;;;5017617;28;20481;-25
2021/07/27 11:57:00;;;;;;;1.47;1.37;;;17.30;99.90;;;;;;5004853;28;20465;-25
2021/07/27 11:59:32;;;;;;;1.43;1.23;;;17.30;99.90;;;;;;5012908;28;20474;-26
2021/07/27 12:02:02;;;;;;;1.50;1.10;;;17.40;99.90;;;;;;5019143;28;20450;-26
2021/07/27 12:04:34;;;;;;;1.17;1.07;;;17.40;99.90;;;;;;5022453;28;20447;-26
2021/07/27 12:07:05;;;;;;;0.93;0.83;;;17.40;99.90;;;;;;5018607;28;20529;-25
2021/07/27 12:09:36;;;;;;;1.30;1.20;;;17.40;99.90;;;;;;5021418;28;20461;-25
2021/07/27 12:12:09;;;;;;;2.70;1.07;;;17.40;99.90;;;;;;5016283;28;20454;-25
2021/07/27 12:14:40;;;;;;;1.10;1.00;;;17.40;99.90;;;;;;5011127;28;20473;-25
2021/07/27 12:17:11;;;;;;;1.03;0.97;;;17.50;99.90;;;;;;5021285;28;20473;-25
2021/07/27 12:19:43;;;;;;;1.40;1.10;;;17.40;99.90;;;;;;5020330;28;20458;-25
2021/07/27 12:22:14;;;;;;;0.80;0.80;;;17.40;99.90;;;;;;5018857;28;20533;-25
2021/07/27 12:24:45;;;;;;;1.20;0.87;;;17.40;99.90;;;;;;5017662;28;20454;-26
2021/07/27 12:27:17;;;;;;;1.50;0.60;;;17.30;99.90;;;;;;5013777;28;20470;-26
2021/07/27 12:29:48;;;;;;;1.63;1.23;;;17.30;99.90;;;;;;5002688;28;20494;-25
2021/07/27 12:32:19;;;;;;;1.50;1.10;;;17.30;99.90;;;;;;5012183;28;21141;-25
2021/07/27 12:35:10;;;;;;;1.20;1.07;;;17.20;99.90;;;;;;5005288;28;22251;-25
2021/07/27 12:37:41;;;;;;;0.70;0.70;;;17.20;99.90;;;;;;5018979;28;20513;-24
2021/07/27 12:40:13;;;;;;;0.70;0.70;;;17.20;99.90;;;;;;5019959;28;20492;-25
2021/07/27 12:42:46;;;;;;;1.20;0.90;;;17.20;99.90;;;;;;5021299;28;20461;-25
2021/07/27 12:45:17;;;;;;;0.83;0.83;;;17.20;99.90;;;;;;5020734;28;20505;-25
2021/07/27 12:47:48;;;;;;;0.83;0.83;;;17.20;99.90;;;;;;5022980;28;20469;-26
2021/07/27 12:50:19;;;;;;;0.80;0.80;;;17.20;99.90;;;;;;5025149;28;20525;-25
2021/07/27 12:52:50;;;;;;;0.90;0.90;;;17.30;99.90;;;;;;5005980;28;20474;-25
2021/07/27 12:55:21;;;;;;;1.10;0.83;;;17.20;99.90;;;;;;5015201;28;20514;-26
2021/07/27 12:57:54;;;;;;;0.77;0.77;;;17.20;99.90;;;;;;5024447;28;20516;-25
2021/07/27 13:00:25;;;;;;;0.90;0.83;;;17.20;99.90;;;;;;5023165;28;20482;-25
2021/07/27 13:02:56;;;;;;;1.27;0.70;;;17.20;99.90;;;;;;5023298;28;20493;-26
2021/07/27 13:05:27;;;;;;;0.80;0.60;;;17.10;99.90;;;;;;5018137;28;20486;-26
2021/07/27 13:07:58;;;;;;;1.07;0.97;;;17.10;99.90;;;;;;5016946;28;20508;-25
2021/07/27 13:10:29;;;;;;;1.40;0.90;;;17.20;99.90;;;;;;5025391;28;20447;-25
2021/07/27 13:13:01;;;;;;;0.77;0.70;;;17.20;99.90;;;;;;5025064;28;20454;-25
2021/07/27 13:15:32;;;;;;;0.90;0.87;;;17.10;99.90;;;;;;5023518;28;20455;-25
2021/07/27 13:18:04;;;;;;;0.80;0.70;;;17.10;99.90;;;;;;5014549;28;20486;-25
2021/07/27 13:20:34;;;;;;;1.20;1.10;;;17.10;99.90;;;;;;5010054;28;20562;-26
2021/07/27 13:23:05;;;;;;;0.87;0.87;;;17.20;99.90;;;;;;5005597;28;20453;-26
2021/07/27 13:25:37;;;;;;;1.70;0.87;;;17.20;99.90;;;;;;5016598;28;20508;-26
2021/07/27 13:28:10;;;;;;;1.10;0.87;;;17.30;99.90;;;;;;5020743;28;20474;-26
2021/07/27 13:30:41;;;;;;;0.70;0.70;;;17.30;99.90;;;;;;5011706;28;20971;-26
2021/07/27 13:33:12;;;;;;;1.00;0.90;;;17.30;99.90;;;;;;5012939;28;20475;-26
2021/07/27 13:35:43;;;;;;;0.70;0.70;;;17.40;99.90;;;;;;5020001;28;20450;-26
2021/07/27 13:38:14;;;;;;;1.50;1.03;;;17.40;99.90;;;;;;5020974;28;20486;-26